createdAt,value
2017-09-11T00:14:05.598Z,17.07
2017-09-11T00:16:32.125Z,17.21
2017-09-11T00:19:07.678Z,17.21
2017-09-11T00:21:34.834Z,17.23
2017-09-11T00:26:42.875Z,17.28
2017-09-11T00:34:32.676Z,16.85
2017-09-11T00:37:06.274Z,16.79
2017-09-11T00:39:37.226Z,16.69
2017-09-11T00:42:15.021Z,16.68
2017-09-11T00:44:51.704Z,16.82
2017-09-11T00:47:18.430Z,16.81
2017-09-11T00:52:23.515Z,16.95
2017-09-11T00:54:53.015Z,17.11
2017-09-11T00:57:20.059Z,17.11
2017-09-11T01:02:35.040Z,16.85
2017-09-11T01:05:09.271Z,16.81
2017-09-11T01:10:19.340Z,16.63
2017-09-11T01:12:54.575Z,16.52
2017-09-11T01:15:22.521Z,16.49
2017-09-11T01:20:27.595Z,16.30
2017-09-11T01:25:37.368Z,16.23
2017-09-11T01:28:13.017Z,16.15
2017-09-11T01:30:40.654Z,16.10
2017-09-11T01:33:10.181Z,16.04
2017-09-11T01:43:38.021Z,15.93
2017-09-11T06:10:00.448Z,27.93
2017-09-11T06:12:26.686Z,27.10
2017-09-11T06:14:52.927Z,27.28
2017-09-11T06:17:19.163Z,27.25
2017-09-11T06:19:45.367Z,27.16
2017-09-11T06:22:11.603Z,27.76
2017-09-11T06:24:37.834Z,28.94
2017-09-11T06:27:04.061Z,29.05
2017-09-11T06:29:30.219Z,29.05
2017-09-11T06:31:56.408Z,29.46
2017-09-11T06:34:22.648Z,28.90
2017-09-11T06:36:48.883Z,29.36
2017-09-11T06:39:15.116Z,29.89
2017-09-11T06:41:41.348Z,30.10
2017-09-11T06:44:07.579Z,30.13
2017-09-11T06:46:33.793Z,29.66
2017-09-11T06:49:00.028Z,30.07
2017-09-11T06:51:26.255Z,30.06
2017-09-11T06:53:52.477Z,30.15
2017-09-11T06:56:18.729Z,30.51
2017-09-11T06:58:44.961Z,30.49
2017-09-11T07:01:11.183Z,30.54
2017-09-11T07:03:37.397Z,30.44
2017-09-11T07:06:03.632Z,30.41
2017-09-11T07:08:29.872Z,30.52
2017-09-11T07:10:56.089Z,30.88
2017-09-11T07:13:22.317Z,30.58
2017-09-11T07:15:48.484Z,31.22
2017-09-11T07:18:14.638Z,31.48
2017-09-11T07:20:40.812Z,32.42
2017-09-11T07:23:07.035Z,32.74
2017-09-11T07:25:33.277Z,33.48
2017-09-11T07:27:59.495Z,33.90
2017-09-11T07:30:25.743Z,34.92
2017-09-11T07:32:51.945Z,35.10
2017-09-11T07:35:18.179Z,34.79
2017-09-11T07:37:44.363Z,33.97
2017-09-11T07:40:10.538Z,33.57
2017-09-11T07:42:36.761Z,33.30
2017-09-11T07:45:03.286Z,33.21
2017-09-11T07:47:29.543Z,33.35
2017-09-11T07:49:55.767Z,33.69
2017-09-11T07:52:22.000Z,34.23
2017-09-11T07:54:48.225Z,34.87
2017-09-11T07:57:14.466Z,34.90
2017-09-11T07:59:40.676Z,35.23
2017-09-11T08:02:06.836Z,35.73
2017-09-11T08:04:32.981Z,35.65
2017-09-11T08:06:59.116Z,35.97
2017-09-11T08:09:25.272Z,36.69
2017-09-11T08:11:51.435Z,37.15
2017-09-11T08:14:17.601Z,38.40
2017-09-11T08:16:43.766Z,38.20
2017-09-11T08:19:09.921Z,38.38
2017-09-11T08:21:36.084Z,37.43
2017-09-11T08:24:02.229Z,37.92
2017-09-11T08:26:28.393Z,37.04
2017-09-11T08:28:54.557Z,37.27
2017-09-11T08:31:20.719Z,36.71
2017-09-11T08:33:46.877Z,36.55
2017-09-11T08:36:13.049Z,36.31
2017-09-11T08:38:39.210Z,36.24
2017-09-11T08:41:05.365Z,36.65
2017-09-11T08:43:31.542Z,36.83
2017-09-11T08:46:00.870Z,36.66
2017-09-11T08:48:27.032Z,36.39
2017-09-11T08:50:53.191Z,36.84
2017-09-11T08:53:19.348Z,37.06
2017-09-11T08:55:45.505Z,36.72
2017-09-11T08:58:11.677Z,37.03
2017-09-11T09:00:37.835Z,36.86
2017-09-11T09:03:03.994Z,36.09
2017-09-11T09:05:30.147Z,35.63
2017-09-11T09:07:56.302Z,36.39
2017-09-11T09:10:22.446Z,36.53
2017-09-11T09:12:48.602Z,36.54
2017-09-11T09:15:14.782Z,36.72
2017-09-11T09:17:40.962Z,36.19
2017-09-11T09:20:07.118Z,36.22
2017-09-11T09:22:33.283Z,36.48
2017-09-11T09:24:59.445Z,35.83
2017-09-11T09:27:25.648Z,35.93
2017-09-11T09:29:51.814Z,36.50
2017-09-11T09:32:17.980Z,36.70
2017-09-11T09:34:44.142Z,36.89
2017-09-11T09:37:10.335Z,37.19
2017-09-11T09:39:36.488Z,37.63
2017-09-11T09:42:02.655Z,37.59
2017-09-11T09:44:28.808Z,37.19
2017-09-11T09:46:54.977Z,37.10
2017-09-11T09:49:21.166Z,36.59
2017-09-11T09:51:47.354Z,36.08
2017-09-11T09:54:13.525Z,35.83
2017-09-11T09:56:39.714Z,36.11
2017-09-11T09:59:05.895Z,35.48
2017-09-11T10:01:32.138Z,36.13
2017-09-11T10:03:59.550Z,36.33
2017-09-11T10:06:25.732Z,36.31
2017-09-11T10:08:51.923Z,36.67
2017-09-11T10:11:18.093Z,36.70
2017-09-11T10:13:44.257Z,36.62
2017-09-11T10:16:10.422Z,36.37
2017-09-11T10:18:36.575Z,36.45
2017-09-11T10:21:02.754Z,35.84
2017-09-11T10:23:28.908Z,35.94
2017-09-11T10:25:55.062Z,35.48
2017-09-11T10:28:21.217Z,35.74
2017-09-11T10:30:47.393Z,36.31
2017-09-11T10:33:13.572Z,35.72
2017-09-11T10:35:39.790Z,35.28
2017-09-11T10:38:06.025Z,36.46
2017-09-11T10:40:32.251Z,36.47
2017-09-11T10:42:58.501Z,35.89
2017-09-11T10:45:24.714Z,36.33
2017-09-11T10:47:50.934Z,35.76
2017-09-11T10:50:17.180Z,36.19
2017-09-11T10:52:43.408Z,36.61
2017-09-11T10:55:09.629Z,36.78
2017-09-11T10:57:35.866Z,36.39
2017-09-11T11:00:02.097Z,35.99
2017-09-11T11:02:28.337Z,35.33
2017-09-11T11:04:54.545Z,34.81
2017-09-11T11:07:20.766Z,34.96
2017-09-11T11:09:47.007Z,34.84
2017-09-11T11:12:13.231Z,34.37
2017-09-11T11:14:39.462Z,34.93
2017-09-11T11:17:05.702Z,34.56
2017-09-11T11:19:31.933Z,34.73
2017-09-11T11:21:58.161Z,34.69
2017-09-11T11:24:24.395Z,34.81
2017-09-11T11:26:50.750Z,34.71
2017-09-11T11:29:16.959Z,35.18
2017-09-11T11:31:43.175Z,35.41
2017-09-11T11:34:09.423Z,36.17
2017-09-11T11:36:35.647Z,35.90
2017-09-11T11:39:01.901Z,35.97
2017-09-11T11:41:28.116Z,36.01
2017-09-11T11:43:54.323Z,35.40
2017-09-11T11:46:20.604Z,35.74
2017-09-11T11:48:46.786Z,35.76
2017-09-11T11:51:13.036Z,36.07
2017-09-11T11:53:39.253Z,36.31
2017-09-11T11:56:05.484Z,36.16
2017-09-11T11:58:31.713Z,35.99
2017-09-11T12:00:57.942Z,36.02
2017-09-11T12:03:24.182Z,36.25
2017-09-11T12:05:50.397Z,36.79
2017-09-11T12:08:16.643Z,36.80
2017-09-11T12:10:42.815Z,37.36
2017-09-11T12:13:08.994Z,37.11
2017-09-11T12:15:35.215Z,36.33
2017-09-11T12:18:01.441Z,36.13
2017-09-11T12:20:27.695Z,36.48
2017-09-11T12:22:53.897Z,36.19
2017-09-11T12:25:20.137Z,36.97
2017-09-11T12:27:46.410Z,36.77
2017-09-11T12:30:12.616Z,36.84
2017-09-11T12:32:38.814Z,36.28
2017-09-11T12:35:05.081Z,36.47
2017-09-11T12:37:31.278Z,36.15
2017-09-11T12:39:57.523Z,36.46
2017-09-11T12:42:23.751Z,35.86
2017-09-11T12:44:50.000Z,35.89
2017-09-11T12:47:16.198Z,36.31
2017-09-11T12:49:42.363Z,36.88
2017-09-11T12:52:08.570Z,36.46
2017-09-11T12:54:34.808Z,36.72
2017-09-11T12:57:01.021Z,37.10
2017-09-11T12:59:27.214Z,36.62
2017-09-11T13:01:53.361Z,36.70
2017-09-11T13:04:19.602Z,36.38
2017-09-11T13:06:45.847Z,36.95
2017-09-11T13:09:12.062Z,37.13
2017-09-11T13:11:38.289Z,36.97
2017-09-11T13:14:04.531Z,36.97
2017-09-11T13:16:30.765Z,37.01
2017-09-11T13:18:56.985Z,36.30
2017-09-11T13:21:23.207Z,36.06
2017-09-11T13:23:49.433Z,36.25
2017-09-11T13:26:15.686Z,36.50
2017-09-11T13:28:41.915Z,36.13
2017-09-11T13:31:08.129Z,36.10
2017-09-11T13:33:34.388Z,36.06
2017-09-11T13:36:00.610Z,36.20
2017-09-11T13:38:26.837Z,36.37
2017-09-11T13:40:53.060Z,36.34
2017-09-11T13:43:19.296Z,36.32
2017-09-11T13:45:45.520Z,36.79
2017-09-11T13:48:11.746Z,36.39
2017-09-11T13:50:37.969Z,36.62
2017-09-11T13:53:04.213Z,36.35
2017-09-11T13:55:30.436Z,36.07
2017-09-11T13:57:56.668Z,36.02
2017-09-11T14:00:22.895Z,35.82
2017-09-11T14:02:49.053Z,35.52
2017-09-11T14:05:15.273Z,35.65
2017-09-11T14:07:41.777Z,36.16
2017-09-11T14:10:08.055Z,35.80
2017-09-11T14:12:34.229Z,35.62
2017-09-11T14:15:00.474Z,35.82
2017-09-11T14:17:26.704Z,35.66
2017-09-11T14:19:52.943Z,35.66
2017-09-11T14:22:19.162Z,35.52
2017-09-11T14:24:45.394Z,35.71
2017-09-11T14:27:11.556Z,35.59
2017-09-11T14:29:37.762Z,35.95
2017-09-11T14:32:03.931Z,35.46
2017-09-11T14:34:30.116Z,35.17
2017-09-11T14:36:56.348Z,35.75
2017-09-11T14:39:22.586Z,35.94
2017-09-11T14:41:48.818Z,35.18
2017-09-11T14:44:15.039Z,34.68
2017-09-11T14:46:41.256Z,34.94
2017-09-11T14:49:07.423Z,34.99
2017-09-11T14:51:33.606Z,34.93
2017-09-11T14:53:59.834Z,35.04
2017-09-11T14:56:26.073Z,35.08
2017-09-11T14:58:52.293Z,34.68
2017-09-11T15:01:18.532Z,35.09
2017-09-11T15:03:44.774Z,35.31
2017-09-11T15:06:11.003Z,35.12
2017-09-11T15:08:37.228Z,35.09
2017-09-11T15:11:03.441Z,34.92
2017-09-11T15:13:29.662Z,34.55
2017-09-11T15:16:00.366Z,34.47
2017-09-11T15:18:26.637Z,34.39
2017-09-11T15:20:52.783Z,34.55
2017-09-11T15:23:19.541Z,34.55
2017-09-11T15:25:45.937Z,34.40
2017-09-11T15:28:12.173Z,34.28
2017-09-11T15:30:38.480Z,34.03
2017-09-11T15:33:04.752Z,33.70
2017-09-11T15:35:30.978Z,33.55
2017-09-11T15:37:57.196Z,33.33
2017-09-11T15:40:23.427Z,33.23
2017-09-11T15:42:49.654Z,33.00
2017-09-11T15:45:15.891Z,32.84
2017-09-11T15:47:42.124Z,32.53
2017-09-11T15:50:08.347Z,32.34
2017-09-11T15:52:34.584Z,32.01
2017-09-11T15:55:00.808Z,31.75
2017-09-11T15:57:27.047Z,31.48
2017-09-11T15:59:53.222Z,31.35
2017-09-11T16:02:19.381Z,31.17
2017-09-11T16:04:45.635Z,31.04
2017-09-11T16:07:11.854Z,31.10
2017-09-11T16:09:38.097Z,30.99
2017-09-11T16:12:07.632Z,30.93
2017-09-11T16:14:33.910Z,30.92
2017-09-11T16:19:38.668Z,30.54
2017-09-11T16:22:14.569Z,30.40
2017-09-11T16:24:50.133Z,30.25
2017-09-11T16:27:16.403Z,30.14
2017-09-11T16:29:42.650Z,30.17
2017-09-11T16:32:08.861Z,29.99
2017-09-11T16:34:35.099Z,29.80
2017-09-11T16:37:01.334Z,29.71
2017-09-11T16:39:27.554Z,29.72
2017-09-11T16:41:53.777Z,29.59
2017-09-11T16:44:20.020Z,29.50
2017-09-11T16:46:46.243Z,29.55
2017-09-11T16:49:12.493Z,29.60
2017-09-11T16:51:38.705Z,29.61
2017-09-11T16:54:04.929Z,29.57
2017-09-11T16:56:31.107Z,29.44
2017-09-11T16:58:57.318Z,29.49
2017-09-11T17:01:23.537Z,29.36
2017-09-11T17:03:49.738Z,29.50
2017-09-11T17:06:16.002Z,29.64
2017-09-11T17:08:42.207Z,29.63
2017-09-11T17:11:08.476Z,29.62
2017-09-11T17:13:34.673Z,29.60
2017-09-11T17:16:00.902Z,29.59
2017-09-11T17:18:27.140Z,29.59
2017-09-11T17:20:53.391Z,29.53
2017-09-11T17:23:19.592Z,29.44
2017-09-11T17:25:45.823Z,29.40
2017-09-11T17:28:12.052Z,29.28
2017-09-11T17:30:38.297Z,29.22
2017-09-11T17:33:04.519Z,29.18
2017-09-11T17:35:30.755Z,29.05
2017-09-11T17:37:56.980Z,28.84
2017-09-11T17:40:23.204Z,28.89
2017-09-11T17:42:49.445Z,28.68
2017-09-11T17:45:15.643Z,28.76
2017-09-11T17:47:41.900Z,28.75
2017-09-11T17:50:08.123Z,28.85
2017-09-11T17:52:34.331Z,28.86
2017-09-11T17:55:00.607Z,29.03
2017-09-11T17:57:26.825Z,29.00
2017-09-11T17:59:53.024Z,28.95
2017-09-11T18:02:19.254Z,28.99
2017-09-11T18:04:45.498Z,29.02
2017-09-11T18:07:11.719Z,28.93
2017-09-11T18:09:37.996Z,28.96
2017-09-11T18:12:04.188Z,28.75
2017-09-11T18:14:30.401Z,28.53
2017-09-11T18:16:56.643Z,28.52
2017-09-11T18:19:22.977Z,28.43
2017-09-11T18:21:49.213Z,28.46
2017-09-11T18:24:15.460Z,28.64
2017-09-11T18:26:41.658Z,28.63
2017-09-11T18:29:07.896Z,28.56
2017-09-11T18:31:34.119Z,28.75
2017-09-11T18:34:00.359Z,28.61
2017-09-11T18:36:26.570Z,28.78
2017-09-11T18:38:52.803Z,28.78
2017-09-11T18:41:19.040Z,28.82
2017-09-11T18:43:45.255Z,28.76
2017-09-11T18:46:11.495Z,28.88
2017-09-11T18:48:37.743Z,28.89
2017-09-11T18:51:03.954Z,28.89
2017-09-11T18:53:30.179Z,28.81
2017-09-11T18:55:56.400Z,28.73
2017-09-11T18:58:22.638Z,28.54
2017-09-11T19:00:49.996Z,28.44
2017-09-11T19:03:16.222Z,28.32
2017-09-11T19:05:42.450Z,28.32
2017-09-11T19:08:08.692Z,28.32
2017-09-11T19:10:34.922Z,28.24
2017-09-11T19:13:01.146Z,28.01
2017-09-11T19:15:27.386Z,27.79
2017-09-11T19:17:53.609Z,27.71
2017-09-11T19:20:19.829Z,27.66
2017-09-11T19:22:46.080Z,27.53
2017-09-11T19:25:12.290Z,27.40
2017-09-11T19:27:38.513Z,27.16
2017-09-11T19:30:04.761Z,27.01
2017-09-11T19:32:31.001Z,26.94
2017-09-11T19:34:57.216Z,26.94
2017-09-11T19:37:23.463Z,27.17
2017-09-11T19:39:49.683Z,27.62
2017-09-11T19:42:15.905Z,27.66
2017-09-11T19:44:42.140Z,27.67
2017-09-11T19:47:08.366Z,27.71
2017-09-11T19:49:34.605Z,27.82
2017-09-11T19:52:00.813Z,27.90
2017-09-11T19:54:27.055Z,28.03
2017-09-11T19:56:53.278Z,28.11
2017-09-11T19:59:19.515Z,28.04
2017-09-11T20:01:45.743Z,28.20
2017-09-11T20:04:11.974Z,28.20
2017-09-11T20:06:38.200Z,28.05
2017-09-11T20:09:04.418Z,27.93
2017-09-11T20:11:30.653Z,27.88
2017-09-11T20:13:56.895Z,27.83
2017-09-11T20:16:23.169Z,27.83
2017-09-11T20:18:49.336Z,27.74
2017-09-11T20:21:15.574Z,27.62
2017-09-11T20:23:41.805Z,27.52
2017-09-11T20:26:08.068Z,27.38
2017-09-11T20:28:34.291Z,27.46
2017-09-11T20:31:00.500Z,27.48
2017-09-11T20:33:26.726Z,27.41
2017-09-11T20:35:52.957Z,27.39
2017-09-11T20:38:19.187Z,27.27
2017-09-11T20:40:45.415Z,27.25
2017-09-11T20:43:11.651Z,27.12
2017-09-11T20:45:37.865Z,27.15
2017-09-11T20:48:04.117Z,27.11
2017-09-11T20:50:30.333Z,27.11
2017-09-11T20:52:56.569Z,27.17
2017-09-11T20:55:22.782Z,27.04
2017-09-11T20:57:49.022Z,26.99
2017-09-11T21:00:15.263Z,26.93
2017-09-11T21:02:41.497Z,27.11
2017-09-11T21:05:07.708Z,27.24
2017-09-11T21:07:33.949Z,27.27
2017-09-11T21:10:00.184Z,27.33
2017-09-11T21:12:26.396Z,27.31
2017-09-11T21:14:52.640Z,27.34
2017-09-11T21:17:18.881Z,27.31
2017-09-11T21:19:45.095Z,27.18
2017-09-11T21:22:11.339Z,27.27
2017-09-11T21:24:37.556Z,27.19
2017-09-11T21:27:03.782Z,27.22
2017-09-11T21:29:30.017Z,27.15
2017-09-11T21:31:56.246Z,27.25
2017-09-11T21:34:22.479Z,27.21
2017-09-11T21:36:48.691Z,27.24
2017-09-11T21:39:14.934Z,27.39
2017-09-11T21:41:41.175Z,27.49
2017-09-11T21:44:07.382Z,27.49
2017-09-11T21:46:33.607Z,27.47
2017-09-11T21:48:59.851Z,27.33
2017-09-11T21:51:26.085Z,27.24
2017-09-11T21:53:52.315Z,27.25
2017-09-11T21:56:18.536Z,27.32
2017-09-11T21:58:44.782Z,27.30
2017-09-11T22:01:11.006Z,27.24
2017-09-11T22:03:37.229Z,27.26
2017-09-11T22:06:03.465Z,27.36
2017-09-11T22:08:29.703Z,27.09
2017-09-11T22:10:55.914Z,27.10
2017-09-11T22:13:22.132Z,27.10
2017-09-11T22:15:48.376Z,27.00
2017-09-11T22:18:14.600Z,26.87
2017-09-11T22:20:40.835Z,26.94
2017-09-11T22:23:07.069Z,26.86
2017-09-11T22:25:33.294Z,26.83
2017-09-11T22:27:59.511Z,26.82
2017-09-11T22:30:25.749Z,26.71
2017-09-11T22:32:51.989Z,26.64
2017-09-11T22:35:18.214Z,26.76
2017-09-11T22:37:44.434Z,26.50
2017-09-11T22:40:10.664Z,26.43
2017-09-11T22:42:36.891Z,26.49
2017-09-11T22:45:03.142Z,26.52
2017-09-11T22:47:29.354Z,26.59
2017-09-11T22:49:55.646Z,26.47
2017-09-11T22:52:21.818Z,26.48
2017-09-11T22:54:48.049Z,26.45
2017-09-11T22:57:14.279Z,26.38
2017-09-11T22:59:40.506Z,26.31
2017-09-11T23:02:06.751Z,26.27
2017-09-11T23:04:32.969Z,26.30
2017-09-11T23:06:59.193Z,26.22
2017-09-11T23:09:25.419Z,26.36
2017-09-11T23:11:51.659Z,26.28
2017-09-11T23:14:17.891Z,26.18
2017-09-11T23:16:44.120Z,26.12
2017-09-11T23:19:10.342Z,26.07
2017-09-11T23:21:36.573Z,26.16
2017-09-11T23:24:02.805Z,26.07
2017-09-11T23:26:29.029Z,26.09
2017-09-11T23:28:55.261Z,26.05
2017-09-11T23:31:21.492Z,26.07
2017-09-11T23:33:47.725Z,25.98
2017-09-11T23:36:13.942Z,26.06
2017-09-11T23:38:40.195Z,25.95
2017-09-11T23:41:06.405Z,25.91
2017-09-11T23:43:32.634Z,25.83
2017-09-11T23:45:58.871Z,25.80
2017-09-11T23:48:25.119Z,25.78
2017-09-11T23:50:51.329Z,25.80
2017-09-11T23:53:17.552Z,25.74
2017-09-11T23:55:43.790Z,25.67
2017-09-11T23:58:10.014Z,25.59
